Time;durP1;ratioP1;P1;durP2;ratioP2;P2;SDS_P1;SDS_P2;PMS_P1;PMS_P2;Temp;Humidity;BMP_temperature;BMP_pressure;BME280_temperature;BME280_humidity;BME280_pressure;Samples;Min_cycle;Max_cycle;Signal;HPM_P1;HPM_P2
2024/01/31 00:00:26;;;;;;;5.20;0.60;;;;;;;;;;5030210;28;20254;-80
2024/01/31 00:02:52;;;;;;;6.00;0.60;;;;;;;;;;5031677;28;20041;-80
2024/01/31 00:05:18;;;;;;;8.05;1.08;;;;;;;;;;5031594;28;20017;-80
2024/01/31 00:07:44;;;;;;;7.57;0.80;;;;;;;;;;5030240;28;20024;-80
2024/01/31 00:10:10;;;;;;;5.75;0.57;;;;;;;;;;5031046;28;20030;-80
2024/01/31 00:12:37;;;;;;;2.88;0.70;;;;;;;;;;5029902;28;20099;-80
2024/01/31 00:15:03;;;;;;;3.38;0.55;;;;;;;;;;5030608;28;20017;-80
2024/01/31 00:17:29;;;;;;;3.38;0.40;;;;;;;;;;5029747;28;20040;-80
2024/01/31 00:19:55;;;;;;;6.05;0.40;;;;;;;;;;5030687;28;20398;-80
2024/01/31 00:22:21;;;;;;;3.03;0.30;;;;;;;;;;5029790;28;20029;-80
2024/01/31 00:24:47;;;;;;;4.03;0.63;;;;;;;;;;5031267;28;20013;-81
2024/01/31 00:27:13;;;;;;;3.70;0.50;;;;;;;;;;5029929;28;20020;-81
2024/01/31 00:29:39;;;;;;;5.85;0.75;;;;;;;;;;5029232;28;20013;-80
2024/01/31 00:32:05;;;;;;;4.85;0.68;;;;;;;;;;5030467;28;20104;-80
2024/01/31 00:34:32;;;;;;;7.55;0.95;;;;;;;;;;5030880;28;20040;-80
2024/01/31 00:36:58;;;;;;;3.65;0.55;;;;;;;;;;5029839;28;20018;-80
2024/01/31 00:39:28;;;;;;;6.13;0.50;;;;;;;;;;5029827;28;20043;-81
2024/01/31 00:41:54;;;;;;;7.55;0.75;;;;;;;;;;5030952;28;20025;-80
2024/01/31 00:44:20;;;;;;;5.10;0.65;;;;;;;;;;5029928;28;20014;-80
2024/01/31 00:46:48;;;;;;;4.38;0.50;;;;;;;;;;5029655;28;20013;-80
2024/01/31 00:49:14;;;;;;;5.40;0.52;;;;;;;;;;5029142;28;20017;-80
2024/01/31 00:51:44;;;;;;;7.78;0.88;;;;;;;;;;5030404;28;20548;-80
2024/01/31 00:54:10;;;;;;;6.73;0.80;;;;;;;;;;5028938;28;20014;-80
2024/01/31 00:56:36;;;;;;;4.50;0.90;;;;;;;;;;5030070;28;20316;-80
2024/01/31 00:59:03;;;;;;;5.60;0.68;;;;;;;;;;5028883;28;20017;-80
2024/01/31 01:01:28;;;;;;;7.28;0.70;;;;;;;;;;5030979;28;20017;-80
2024/01/31 01:03:54;;;;;;;4.72;0.80;;;;;;;;;;5029084;28;20099;-80
2024/01/31 01:06:20;;;;;;;7.40;0.93;;;;;;;;;;5028874;28;20101;-80
2024/01/31 01:08:47;;;;;;;4.50;1.00;;;;;;;;;;5028509;28;20010;-80
2024/01/31 01:11:13;;;;;;;4.30;0.68;;;;;;;;;;5030202;28;20679;-80
2024/01/31 01:13:39;;;;;;;3.03;0.60;;;;;;;;;;5029022;28;20021;-79
2024/01/31 01:16:05;;;;;;;4.72;0.82;;;;;;;;;;5028359;28;20454;-79
2024/01/31 01:18:31;;;;;;;6.13;0.88;;;;;;;;;;5028472;28;20429;-80
2024/01/31 01:20:57;;;;;;;4.43;1.00;;;;;;;;;;5030626;28;20539;-80
2024/01/31 01:23:23;;;;;;;5.20;0.80;;;;;;;;;;5029053;28;20104;-80
2024/01/31 01:25:49;;;;;;;5.00;1.00;;;;;;;;;;5029617;28;20494;-80
2024/01/31 01:28:15;;;;;;;3.90;0.90;;;;;;;;;;5028391;28;20072;-80
2024/01/31 01:30:41;;;;;;;3.78;1.05;;;;;;;;;;5029501;28;20021;-80
2024/01/31 01:33:07;;;;;;;4.93;0.60;;;;;;;;;;5029643;28;20355;-79
2024/01/31 01:35:33;;;;;;;2.17;0.32;;;;;;;;;;5028164;28;20024;-80
2024/01/31 01:37:59;;;;;;;2.90;0.40;;;;;;;;;;5029089;28;20429;-80
2024/01/31 01:40:25;;;;;;;6.15;0.85;;;;;;;;;;5028057;28;20048;-80
2024/01/31 01:42:51;;;;;;;4.30;0.47;;;;;;;;;;5028488;28;20045;-80
2024/01/31 01:45:17;;;;;;;2.70;0.30;;;;;;;;;;5028321;28;20480;-80
2024/01/31 01:47:50;;;;;;;3.35;0.55;;;;;;;;;;5029751;28;20609;-80
2024/01/31 01:50:17;;;;;;;1.67;0.20;;;;;;;;;;5028567;28;20072;-80
2024/01/31 01:52:43;;;;;;;3.15;0.55;;;;;;;;;;5028403;28;20041;-80
2024/01/31 01:55:10;;;;;;;3.58;0.30;;;;;;;;;;5028191;28;20466;-79
2024/01/31 01:57:38;;;;;;;3.40;0.45;;;;;;;;;;5029299;28;20074;-80
2024/01/31 02:00:04;;;;;;;0.95;0.38;;;;;;;;;;5028327;28;20029;-80
2024/01/31 02:02:31;;;;;;;3.55;0.63;;;;;;;;;;5029743;28;20481;-80
2024/01/31 02:04:57;;;;;;;2.97;0.60;;;;;;;;;;5033303;28;20512;-80
2024/01/31 02:07:26;;;;;;;3.95;0.80;;;;;;;;;;5032975;28;20458;-80
2024/01/31 02:09:53;;;;;;;4.43;0.68;;;;;;;;;;5028182;28;20033;-79
2024/01/31 02:12:19;;;;;;;1.95;0.30;;;;;;;;;;5027504;28;20060;-80
2024/01/31 02:14:47;;;;;;;1.35;0.30;;;;;;;;;;5027852;28;20013;-80
2024/01/31 02:17:13;;;;;;;2.28;0.40;;;;;;;;;;5027816;28;20500;-80
2024/01/31 02:19:39;;;;;;;2.80;0.40;;;;;;;;;;5026979;28;20034;-80
2024/01/31 02:22:07;;;;;;;2.88;0.40;;;;;;;;;;5027264;28;20020;-79
2024/01/31 02:24:33;;;;;;;3.47;0.60;;;;;;;;;;5028323;28;20021;-80
2024/01/31 02:26:59;;;;;;;2.97;0.40;;;;;;;;;;5027071;28;20150;-80
2024/01/31 02:29:25;;;;;;;6.57;0.60;;;;;;;;;;5027181;28;20021;-80
2024/01/31 02:31:51;;;;;;;3.85;0.45;;;;;;;;;;5027572;28;20029;-79
2024/01/31 02:34:18;;;;;;;5.45;0.80;;;;;;;;;;5028732;28;20024;-80
2024/01/31 02:36:44;;;;;;;4.22;0.70;;;;;;;;;;5027669;28;20013;-80
2024/01/31 02:39:10;;;;;;;3.35;0.68;;;;;;;;;;5027997;28;20021;-79
2024/01/31 02:41:36;;;;;;;5.28;0.55;;;;;;;;;;5026490;28;20030;-80
2024/01/31 02:44:02;;;;;;;7.50;0.50;;;;;;;;;;5027983;28;20013;-80
2024/01/31 02:46:28;;;;;;;4.32;0.63;;;;;;;;;;5028196;28;20075;-80
2024/01/31 02:48:54;;;;;;;6.32;0.70;;;;;;;;;;5028457;28;20370;-80
2024/01/31 02:51:20;;;;;;;2.90;0.65;;;;;;;;;;5026725;28;20018;-79
2024/01/31 02:53:46;;;;;;;4.55;0.60;;;;;;;;;;5028154;28;20485;-80
2024/01/31 02:56:12;;;;;;;3.75;0.57;;;;;;;;;;5027108;28;20025;-80
2024/01/31 02:58:38;;;;;;;6.13;0.70;;;;;;;;;;5027100;28;20025;-80
2024/01/31 03:01:07;;;;;;;6.35;0.70;;;;;;;;;;5027203;28;20044;-81
2024/01/31 03:03:33;;;;;;;4.05;0.60;;;;;;;;;;5026868;28;20069;-80
2024/01/31 03:05:59;;;;;;;6.97;0.70;;;;;;;;;;5026510;28;20378;-80
2024/01/31 03:08:25;;;;;;;4.47;0.70;;;;;;;;;;5027653;28;20478;-80
2024/01/31 03:10:51;;;;;;;5.32;1.02;;;;;;;;;;5027045;28;20021;-80
2024/01/31 03:13:17;;;;;;;5.50;1.40;;;;;;;;;;5028300;28;20044;-80
2024/01/31 03:15:43;;;;;;;4.22;0.75;;;;;;;;;;5026505;28;20010;-80
2024/01/31 03:18:09;;;;;;;5.72;1.00;;;;;;;;;;5028020;28;20096;-80
2024/01/31 03:20:35;;;;;;;5.15;0.90;;;;;;;;;;5026660;28;20124;-80
2024/01/31 03:23:01;;;;;;;5.15;0.65;;;;;;;;;;5027771;28;20014;-80
2024/01/31 03:25:28;;;;;;;2.58;0.68;;;;;;;;;;5026986;28;20021;-80
2024/01/31 03:27:54;;;;;;;4.80;0.85;;;;;;;;;;5026917;28;20423;-80
2024/01/31 03:30:20;;;;;;;4.85;0.70;;;;;;;;;;5028711;28;20466;-79
2024/01/31 03:32:46;;;;;;;4.35;0.60;;;;;;;;;;5026056;28;20417;-80
2024/01/31 03:35:12;;;;;;;4.75;0.70;;;;;;;;;;5026518;28;20025;-80
2024/01/31 03:37:38;;;;;;;4.97;0.70;;;;;;;;;;5027756;28;20021;-80
2024/01/31 03:40:05;;;;;;;4.25;0.70;;;;;;;;;;5026183;28;20089;-80
2024/01/31 03:42:31;;;;;;;3.83;0.77;;;;;;;;;;5026391;28;20490;-80
2024/01/31 03:44:57;;;;;;;9.35;0.82;;;;;;;;;;5026993;28;20022;-80
2024/01/31 03:47:24;;;;;;;4.78;1.08;;;;;;;;;;5026987;28;20060;-80
2024/01/31 03:49:51;;;;;;;5.35;1.35;;;;;;;;;;5026704;28;20022;-80
2024/01/31 03:52:17;;;;;;;6.03;1.13;;;;;;;;;;5026897;28;20027;-80
2024/01/31 03:54:43;;;;;;;9.43;1.23;;;;;;;;;;5028252;28;20507;-80
2024/01/31 03:57:10;;;;;;;6.13;1.38;;;;;;;;;;5027032;28;20487;-80
2024/01/31 03:59:37;;;;;;;3.65;1.08;;;;;;;;;;5027602;28;20445;-80
2024/01/31 04:02:03;;;;;;;7.50;0.88;;;;;;;;;;5028094;28;20041;-80
2024/01/31 04:04:29;;;;;;;6.93;1.10;;;;;;;;;;5028904;28;20084;-79
2024/01/31 04:06:55;;;;;;;6.60;1.10;;;;;;;;;;5029876;28;20480;-80
2024/01/31 04:09:21;;;;;;;5.40;1.10;;;;;;;;;;5029867;28;20021;-80
2024/01/31 04:11:47;;;;;;;5.00;1.13;;;;;;;;;;5030102;28;20543;-80
2024/01/31 04:14:13;;;;;;;6.15;1.23;;;;;;;;;;5031615;28;20022;-80
2024/01/31 04:16:39;;;;;;;8.82;1.42;;;;;;;;;;5030883;28;20025;-80
2024/01/31 04:19:06;;;;;;;9.52;1.20;;;;;;;;;;5030084;28;20029;-79
2024/01/31 04:21:32;;;;;;;12.98;1.75;;;;;;;;;;5030175;28;20025;-80
2024/01/31 04:23:58;;;;;;;8.35;1.60;;;;;;;;;;5029819;28;20024;-80
2024/01/31 04:26:24;;;;;;;5.78;1.40;;;;;;;;;;5029647;28;20271;-80
2024/01/31 04:28:50;;;;;;;9.85;1.50;;;;;;;;;;5029640;28;20252;-80
2024/01/31 04:31:16;;;;;;;9.20;1.40;;;;;;;;;;5034721;28;20045;-80
2024/01/31 04:33:42;;;;;;;7.80;1.38;;;;;;;;;;5034805;28;20155;-79
2024/01/31 04:36:09;;;;;;;14.15;1.83;;;;;;;;;;5029877;28;20018;-79
2024/01/31 04:38:35;;;;;;;10.73;1.60;;;;;;;;;;5030788;28;20029;-80
2024/01/31 04:41:02;;;;;;;6.80;1.27;;;;;;;;;;5031832;28;20035;-80
2024/01/31 04:43:28;;;;;;;12.40;1.58;;;;;;;;;;5029656;28;20207;-79
2024/01/31 04:45:54;;;;;;;9.32;2.00;;;;;;;;;;5029588;28;20079;-80
2024/01/31 04:48:20;;;;;;;9.48;1.92;;;;;;;;;;5029755;28;20413;-80
2024/01/31 04:50:46;;;;;;;9.15;1.77;;;;;;;;;;5029849;28;20017;-80
2024/01/31 04:53:12;;;;;;;8.77;1.35;;;;;;;;;;5029219;28;20021;-80
2024/01/31 04:55:38;;;;;;;10.13;1.58;;;;;;;;;;5029552;28;20022;-80
2024/01/31 04:58:04;;;;;;;10.02;1.45;;;;;;;;;;5029489;28;20040;-80
2024/01/31 05:00:30;;;;;;;7.03;1.30;;;;;;;;;;5011120;28;20089;-83
2024/01/31 05:02:57;;;;;;;7.55;1.33;;;;;;;;;;5008962;28;20427;-85
2024/01/31 05:05:23;;;;;;;7.95;1.70;;;;;;;;;;5017693;28;20017;-83
2024/01/31 05:07:49;;;;;;;7.78;1.42;;;;;;;;;;5018616;28;20068;-82
2024/01/31 05:10:15;;;;;;;7.45;1.80;;;;;;;;;;5020637;28;20075;-82
2024/01/31 05:12:41;;;;;;;9.60;3.70;;;;;;;;;;5020398;28;20109;-83
2024/01/31 05:15:07;;;;;;;9.27;1.83;;;;;;;;;;5020765;28;20470;-82
2024/01/31 05:17:33;;;;;;;9.70;1.50;;;;;;;;;;5016997;28;20042;-83
2024/01/31 05:19:59;;;;;;;7.20;1.63;;;;;;;;;;5022910;28;20056;-83
2024/01/31 05:22:26;;;;;;;8.25;1.40;;;;;;;;;;5015600;28;20014;-83
2024/01/31 05:24:52;;;;;;;10.75;1.38;;;;;;;;;;5021648;28;20116;-83
2024/01/31 05:27:18;;;;;;;9.65;1.75;;;;;;;;;;5029377;28;20100;-83
2024/01/31 05:29:44;;;;;;;6.93;1.13;;;;;;;;;;5028456;28;20056;-82
2024/01/31 05:32:10;;;;;;;8.00;1.25;;;;;;;;;;5028646;28;20049;-82
2024/01/31 05:34:37;;;;;;;8.65;1.33;;;;;;;;;;5028632;28;20017;-82
2024/01/31 05:37:03;;;;;;;7.85;1.35;;;;;;;;;;5028125;28;20068;-82
2024/01/31 05:39:29;;;;;;;7.93;1.50;;;;;;;;;;5028162;28;20017;-81
2024/01/31 05:41:55;;;;;;;10.07;1.60;;;;;;;;;;5027997;28;20029;-84
2024/01/31 05:44:21;;;;;;;6.72;1.58;;;;;;;;;;5029132;28;20013;-83
2024/01/31 05:46:47;;;;;;;8.25;2.00;;;;;;;;;;5028638;28;20100;-83
2024/01/31 05:49:13;;;;;;;11.80;1.98;;;;;;;;;;5029759;28;20057;-83
2024/01/31 05:51:39;;;;;;;9.38;1.58;;;;;;;;;;5029899;28;20037;-83
2024/01/31 05:54:05;;;;;;;10.85;1.88;;;;;;;;;;5029487;28;20064;-83
2024/01/31 05:56:31;;;;;;;7.30;2.30;;;;;;;;;;5029040;28;20108;-83
2024/01/31 05:58:57;;;;;;;9.20;2.47;;;;;;;;;;5030036;28;20020;-83
2024/01/31 06:01:23;;;;;;;8.20;1.92;;;;;;;;;;5028399;28;20072;-83
2024/01/31 06:03:49;;;;;;;5.60;2.10;;;;;;;;;;5028739;28;20133;-82
2024/01/31 06:06:15;;;;;;;9.30;2.28;;;;;;;;;;5028578;28;20026;-83
2024/01/31 06:08:41;;;;;;;10.25;3.30;;;;;;;;;;5028975;28;20014;-83
2024/01/31 06:11:08;;;;;;;7.05;2.72;;;;;;;;;;5029790;28;20101;-83
2024/01/31 06:13:35;;;;;;;9.07;4.43;;;;;;;;;;5029589;28;20096;-83
2024/01/31 06:16:02;;;;;;;10.20;3.47;;;;;;;;;;5026825;28;20029;-83
2024/01/31 06:18:32;;;;;;;8.20;2.80;;;;;;;;;;5010726;28;20018;-85
2024/01/31 06:20:58;;;;;;;9.07;3.38;;;;;;;;;;5028115;28;20026;-83
2024/01/31 06:23:26;;;;;;;7.97;3.80;;;;;;;;;;5028624;28;20078;-83
2024/01/31 06:25:52;;;;;;;9.65;3.15;;;;;;;;;;5028527;28;20448;-84
2024/01/31 06:28:18;;;;;;;8.15;3.30;;;;;;;;;;5029790;28;20022;-83
2024/01/31 06:30:45;;;;;;;9.50;3.25;;;;;;;;;;5029452;28;20410;-82
2024/01/31 06:33:11;;;;;;;7.57;3.35;;;;;;;;;;5027514;28;20104;-82
2024/01/31 06:35:38;;;;;;;6.70;3.30;;;;;;;;;;5024344;28;20485;-83
2024/01/31 06:38:05;;;;;;;7.50;3.28;;;;;;;;;;5019106;28;20018;-84
2024/01/31 06:40:31;;;;;;;8.18;3.50;;;;;;;;;;5017872;28;20252;-83
2024/01/31 06:43:00;;;;;;;7.72;3.85;;;;;;;;;;5029348;28;20009;-84
2024/01/31 06:45:26;;;;;;;6.53;4.30;;;;;;;;;;5027710;28;20009;-83
2024/01/31 06:47:52;;;;;;;7.00;4.10;;;;;;;;;;5028661;28;20021;-84
2024/01/31 06:50:19;;;;;;;8.23;3.80;;;;;;;;;;5028144;28;20021;-84
2024/01/31 06:52:49;;;;;;;9.45;4.03;;;;;;;;;;5027746;28;20017;-83
2024/01/31 06:55:15;;;;;;;6.43;4.57;;;;;;;;;;5025844;28;20030;-84
2024/01/31 06:57:42;;;;;;;8.07;4.95;;;;;;;;;;5019299;28;20076;-83
2024/01/31 07:00:11;;;;;;;8.43;5.47;;;;;;;;;;5011888;28;20033;-83
2024/01/31 07:02:37;;;;;;;7.77;5.70;;;;;;;;;;5039062;28;20050;-83
2024/01/31 07:05:04;;;;;;;8.82;6.03;;;;;;;;;;5031075;28;20018;-84
2024/01/31 07:07:30;;;;;;;9.93;7.07;;;;;;;;;;5029469;28;20037;-84
2024/01/31 07:09:56;;;;;;;9.18;6.82;;;;;;;;;;5020100;28;20013;-83
2024/01/31 07:12:22;;;;;;;9.95;6.78;;;;;;;;;;5019714;28;20009;-84
2024/01/31 07:14:48;;;;;;;9.27;6.63;;;;;;;;;;5018690;28;20416;-84
2024/01/31 07:17:14;;;;;;;7.53;6.32;;;;;;;;;;5018537;28;20025;-84
2024/01/31 07:19:43;;;;;;;8.10;6.25;;;;;;;;;;5016020;28;20020;-84
2024/01/31 07:22:09;;;;;;;12.20;6.70;;;;;;;;;;5021404;28;20025;-85
2024/01/31 07:24:35;;;;;;;9.32;6.22;;;;;;;;;;5028623;28;20025;-85
2024/01/31 07:27:02;;;;;;;8.25;6.22;;;;;;;;;;5028214;28;20049;-83
2024/01/31 07:29:28;;;;;;;12.05;6.68;;;;;;;;;;5026502;28;20109;-82
2024/01/31 07:31:54;;;;;;;10.77;7.13;;;;;;;;;;5026059;28;20049;-81
2024/01/31 07:34:20;;;;;;;12.23;7.45;;;;;;;;;;5023390;28;20345;-82
2024/01/31 07:36:46;;;;;;;11.40;8.18;;;;;;;;;;5016557;28;20383;-82
2024/01/31 07:39:12;;;;;;;12.40;7.88;;;;;;;;;;5023786;28;20059;-82
2024/01/31 07:41:38;;;;;;;12.98;8.85;;;;;;;;;;5025544;28;20037;-82
2024/01/31 07:44:04;;;;;;;10.55;7.65;;;;;;;;;;5019054;28;20018;-82
2024/01/31 07:46:30;;;;;;;12.15;8.50;;;;;;;;;;5024525;28;20481;-82
2024/01/31 07:48:56;;;;;;;15.95;8.90;;;;;;;;;;5021019;28;20061;-82
2024/01/31 07:51:22;;;;;;;13.30;9.15;;;;;;;;;;5019616;28;20065;-82
2024/01/31 07:53:48;;;;;;;13.05;9.73;;;;;;;;;;5010696;28;20446;-82
2024/01/31 07:56:14;;;;;;;14.23;9.70;;;;;;;;;;5015705;28;20490;-82
2024/01/31 07:58:40;;;;;;;13.45;8.82;;;;;;;;;;5027019;28;20079;-82
2024/01/31 08:01:06;;;;;;;12.27;9.35;;;;;;;;;;5020472;28;20064;-82
2024/01/31 08:03:38;;;;;;;14.57;9.40;;;;;;;;;;5024901;28;20038;-82
2024/01/31 08:06:05;;;;;;;10.88;8.40;;;;;;;;;;5030471;28;20010;-83
2024/01/31 08:08:31;;;;;;;11.35;8.90;;;;;;;;;;5028598;28;20113;-82
2024/01/31 08:10:59;;;;;;;12.32;8.98;;;;;;;;;;5029233;28;20026;-82
2024/01/31 08:13:25;;;;;;;12.38;9.07;;;;;;;;;;5029648;28;20025;-82
2024/01/31 08:15:51;;;;;;;15.02;9.88;;;;;;;;;;5029294;28;20363;-82
2024/01/31 08:18:18;;;;;;;12.05;8.38;;;;;;;;;;5022060;28;20116;-82
2024/01/31 08:20:44;;;;;;;13.25;9.45;;;;;;;;;;5020497;28;20073;-82
2024/01/31 08:23:10;;;;;;;12.48;9.48;;;;;;;;;;5028671;28;20045;-81
2024/01/31 08:25:36;;;;;;;12.00;9.90;;;;;;;;;;5027905;28;20566;-82
2024/01/31 08:28:02;;;;;;;14.52;9.57;;;;;;;;;;5029659;28;20045;-82
2024/01/31 08:30:28;;;;;;;11.30;9.43;;;;;;;;;;5027422;28;20030;-81
2024/01/31 08:32:54;;;;;;;13.57;9.90;;;;;;;;;;5027016;28;20437;-81
2024/01/31 08:35:20;;;;;;;14.10;10.07;;;;;;;;;;5028963;28;20033;-80
2024/01/31 08:37:46;;;;;;;13.70;10.18;;;;;;;;;;5029552;28;20670;-79
2024/01/31 08:40:14;;;;;;;14.70;9.75;;;;;;;;;;5022830;28;20034;-79
2024/01/31 08:42:40;;;;;;;13.57;10.57;;;;;;;;;;5025653;28;20072;-78
2024/01/31 08:45:07;;;;;;;13.95;9.55;;;;;;;;;;5025914;28;20052;-79
2024/01/31 08:47:33;;;;;;;14.18;9.57;;;;;;;;;;5022179;28;20445;-79
2024/01/31 08:49:59;;;;;;;14.43;9.68;;;;;;;;;;5026429;28;20104;-79
2024/01/31 08:52:25;;;;;;;14.88;9.77;;;;;;;;;;5024073;28;20057;-78
2024/01/31 08:54:51;;;;;;;15.05;9.50;;;;;;;;;;5029777;28;20068;-78
2024/01/31 08:57:17;;;;;;;15.75;9.40;;;;;;;;;;5028806;28;20128;-78
2024/01/31 08:59:43;;;;;;;15.02;10.10;;;;;;;;;;5029022;28;20117;-79
2024/01/31 09:02:09;;;;;;;13.38;8.75;;;;;;;;;;5027153;28;20562;-78
2024/01/31 09:04:36;;;;;;;15.93;10.05;;;;;;;;;;5027456;28;20029;-79
2024/01/31 09:07:02;;;;;;;16.13;10.27;;;;;;;;;;5026178;28;20022;-79
2024/01/31 09:09:28;;;;;;;15.15;9.75;;;;;;;;;;5024942;28;20009;-79
2024/01/31 09:11:54;;;;;;;13.88;9.30;;;;;;;;;;5028238;28;20021;-81
2024/01/31 09:14:20;;;;;;;14.23;9.63;;;;;;;;;;5027074;28;20029;-79
2024/01/31 09:16:46;;;;;;;15.82;9.32;;;;;;;;;;5028022;28;20017;-81
2024/01/31 09:19:12;;;;;;;13.85;9.20;;;;;;;;;;5027063;28;20049;-81
2024/01/31 09:21:38;;;;;;;13.27;8.75;;;;;;;;;;5013692;28;20025;-81
2024/01/31 09:24:04;;;;;;;13.20;8.23;;;;;;;;;;5020492;28;20069;-81
2024/01/31 09:26:30;;;;;;;12.30;8.07;;;;;;;;;;5030167;28;20013;-80
2024/01/31 09:28:57;;;;;;;13.57;8.25;;;;;;;;;;5030492;28;20079;-81
2024/01/31 09:31:26;;;;;;;14.60;8.65;;;;;;;;;;5022732;28;20030;-81
2024/01/31 09:33:53;;;;;;;14.07;8.63;;;;;;;;;;5027214;28;20493;-81
2024/01/31 09:36:20;;;;;;;13.23;7.55;;;;;;;;;;5027654;28;20567;-81
2024/01/31 09:38:47;;;;;;;10.90;7.68;;;;;;;;;;5017677;28;20117;-81
2024/01/31 09:41:15;;;;;;;12.23;8.15;;;;;;;;;;5016540;28;20022;-80
2024/01/31 09:43:41;;;;;;;10.75;7.32;;;;;;;;;;5027367;28;20022;-81
2024/01/31 09:46:07;;;;;;;11.40;7.40;;;;;;;;;;5019308;28;20032;-81
2024/01/31 09:48:33;;;;;;;11.35;6.63;;;;;;;;;;5025132;28;20080;-81
2024/01/31 09:51:02;;;;;;;11.63;7.72;;;;;;;;;;5029234;28;20025;-81
2024/01/31 09:53:29;;;;;;;11.05;7.43;;;;;;;;;;5026718;28;20272;-82
2024/01/31 09:55:55;;;;;;;11.13;7.85;;;;;;;;;;5028245;28;20033;-81
2024/01/31 09:58:22;;;;;;;13.40;7.78;;;;;;;;;;5025994;28;20462;-82
2024/01/31 10:00:51;;;;;;;13.50;7.80;;;;;;;;;;5028355;28;20104;-82
2024/01/31 10:03:17;;;;;;;11.18;7.38;;;;;;;;;;5027671;28;20065;-82
2024/01/31 10:05:43;;;;;;;11.90;7.32;;;;;;;;;;5027561;28;20029;-81
2024/01/31 10:08:10;;;;;;;12.50;7.70;;;;;;;;;;5025158;28;20313;-81
2024/01/31 10:10:36;;;;;;;11.50;7.20;;;;;;;;;;5027190;28;20025;-81
2024/01/31 10:13:03;;;;;;;12.30;7.15;;;;;;;;;;5027421;28;20478;-82
2024/01/31 10:15:29;;;;;;;13.30;7.85;;;;;;;;;;5027983;28;20029;-81
2024/01/31 10:17:55;;;;;;;15.10;7.75;;;;;;;;;;5024991;28;20075;-81
2024/01/31 10:20:21;;;;;;;13.25;7.25;;;;;;;;;;5026361;28;20038;-81
2024/01/31 10:22:47;;;;;;;11.43;7.45;;;;;;;;;;5025801;28;20017;-81
2024/01/31 10:25:16;;;;;;;13.32;7.65;;;;;;;;;;5024637;28;20446;-81
2024/01/31 10:27:45;;;;;;;10.20;7.40;;;;;;;;;;5027062;28;20014;-82
2024/01/31 10:30:12;;;;;;;11.77;6.85;;;;;;;;;;5023084;28;20089;-81
2024/01/31 10:32:39;;;;;;;10.20;6.38;;;;;;;;;;5027197;28;20037;-82
2024/01/31 10:35:05;;;;;;;10.70;6.95;;;;;;;;;;5025505;28;20021;-81
2024/01/31 10:37:31;;;;;;;9.60;6.10;;;;;;;;;;5026901;28;20394;-81
2024/01/31 10:40:04;;;;;;;12.20;6.53;;;;;;;;;;5028728;28;20025;-81
2024/01/31 10:42:30;;;;;;;10.27;6.30;;;;;;;;;;5027707;28;20028;-81
2024/01/31 10:44:58;;;;;;;11.15;6.80;;;;;;;;;;5028245;28;20021;-82
2024/01/31 10:47:24;;;;;;;8.60;6.22;;;;;;;;;;5018986;28;20017;-81
2024/01/31 10:49:50;;;;;;;9.50;6.03;;;;;;;;;;5024095;28;20017;-81
2024/01/31 10:52:19;;;;;;;10.63;6.55;;;;;;;;;;5036454;28;20032;-82
2024/01/31 10:54:48;;;;;;;10.23;6.20;;;;;;;;;;5021263;28;20109;-81
2024/01/31 10:57:14;;;;;;;8.95;5.82;;;;;;;;;;5021005;28;20026;-80
2024/01/31 10:59:41;;;;;;;9.75;5.78;;;;;;;;;;5026273;28;20030;-81
2024/01/31 11:02:14;;;;;;;8.90;6.00;;;;;;;;;;5025334;28;20048;-81
2024/01/31 11:04:41;;;;;;;8.35;5.43;;;;;;;;;;5021737;28;20033;-80
2024/01/31 11:07:07;;;;;;;8.75;5.55;;;;;;;;;;5025762;28;20097;-81
2024/01/31 11:09:33;;;;;;;7.93;5.78;;;;;;;;;;5024208;28;20120;-80
2024/01/31 11:12:02;;;;;;;11.18;6.72;;;;;;;;;;5023241;28;20025;-80
2024/01/31 11:14:29;;;;;;;12.68;7.93;;;;;;;;;;5023762;28;20121;-79
2024/01/31 11:17:05;;;;;;;11.85;8.45;;;;;;;;;;5028349;28;20032;-80
2024/01/31 11:19:31;;;;;;;9.65;6.30;;;;;;;;;;5026430;28;20413;-80
2024/01/31 11:22:00;;;;;;;12.20;6.43;;;;;;;;;;5024742;28;20030;-80
2024/01/31 11:24:26;;;;;;;10.70;6.32;;;;;;;;;;5029626;28;20080;-80
2024/01/31 11:26:52;;;;;;;10.18;6.90;;;;;;;;;;5028733;28;20112;-80
2024/01/31 11:29:18;;;;;;;9.25;6.53;;;;;;;;;;5026472;28;20076;-79
2024/01/31 11:31:44;;;;;;;9.98;6.20;;;;;;;;;;5023442;28;20025;-79
2024/01/31 11:34:10;;;;;;;10.65;6.72;;;;;;;;;;5029099;28;20030;-80
2024/01/31 11:36:36;;;;;;;8.65;6.30;;;;;;;;;;5028960;28;20033;-81
2024/01/31 11:39:05;;;;;;;10.45;6.63;;;;;;;;;;5027164;28;20575;-82
2024/01/31 11:41:31;;;;;;;10.25;7.30;;;;;;;;;;5029085;28;20052;-81
2024/01/31 11:43:57;;;;;;;8.90;6.90;;;;;;;;;;5030830;28;20436;-82
2024/01/31 11:46:23;;;;;;;10.63;6.90;;;;;;;;;;5028005;28;20021;-82
2024/01/31 11:48:49;;;;;;;10.05;6.57;;;;;;;;;;5026533;28;20026;-83
2024/01/31 11:51:15;;;;;;;8.50;6.07;;;;;;;;;;5032861;28;20021;-83
2024/01/31 11:53:41;;;;;;;10.55;6.95;;;;;;;;;;5033472;28;20028;-84
2024/01/31 11:56:07;;;;;;;8.15;6.35;;;;;;;;;;5029542;28;20029;-83
2024/01/31 11:58:36;;;;;;;9.40;7.20;;;;;;;;;;5039704;28;20057;-83
2024/01/31 12:01:02;;;;;;;10.60;6.88;;;;;;;;;;5029423;28;20476;-83
2024/01/31 12:03:28;;;;;;;9.75;7.40;;;;;;;;;;5025724;28;20045;-83
2024/01/31 12:05:56;;;;;;;9.75;7.63;;;;;;;;;;5024004;28;20048;-83
2024/01/31 12:08:26;;;;;;;9.68;6.90;;;;;;;;;;5017824;28;20136;-83
2024/01/31 12:10:53;;;;;;;10.77;6.75;;;;;;;;;;5029497;28;20635;-84
2024/01/31 12:13:19;;;;;;;11.60;7.30;;;;;;;;;;5027666;28;20033;-83
2024/01/31 12:15:46;;;;;;;8.70;7.07;;;;;;;;;;5028828;28;20186;-84
2024/01/31 12:18:13;;;;;;;9.88;7.68;;;;;;;;;;5027542;28;20029;-83
2024/01/31 12:20:39;;;;;;;10.57;7.18;;;;;;;;;;5042561;28;20056;-83
2024/01/31 12:23:05;;;;;;;9.20;7.05;;;;;;;;;;5025689;28;20498;-83
2024/01/31 12:25:31;;;;;;;11.10;7.50;;;;;;;;;;5026933;28;20026;-83
2024/01/31 12:27:57;;;;;;;11.10;7.78;;;;;;;;;;5029496;28;20025;-83
2024/01/31 12:30:23;;;;;;;10.90;7.30;;;;;;;;;;5029873;28;20033;-83
2024/01/31 12:32:49;;;;;;;10.93;7.55;;;;;;;;;;5029339;28;20026;-83
2024/01/31 12:35:17;;;;;;;12.38;7.63;;;;;;;;;;5030807;28;20129;-82
2024/01/31 12:37:44;;;;;;;11.85;7.78;;;;;;;;;;5029625;28;20017;-83
2024/01/31 12:40:11;;;;;;;11.60;8.18;;;;;;;;;;5020780;28;20049;-85
2024/01/31 12:42:37;;;;;;;12.27;8.30;;;;;;;;;;5017895;28;20355;-84
2024/01/31 12:45:04;;;;;;;12.65;8.02;;;;;;;;;;5022750;28;20510;-85
2024/01/31 12:47:30;;;;;;;13.65;8.20;;;;;;;;;;5031864;28;20033;-85
2024/01/31 12:49:56;;;;;;;11.07;7.25;;;;;;;;;;5025258;28;20111;-84
2024/01/31 12:52:24;;;;;;;10.73;7.15;;;;;;;;;;5031080;28;20018;-85
2024/01/31 12:54:50;;;;;;;11.10;7.20;;;;;;;;;;5026024;28;20014;-85
2024/01/31 12:57:17;;;;;;;11.75;7.50;;;;;;;;;;5023789;28;20018;-85
2024/01/31 12:59:46;;;;;;;11.13;7.40;;;;;;;;;;5023108;28;20029;-85
2024/01/31 13:02:12;;;;;;;10.57;7.20;;;;;;;;;;5029884;28;20106;-84
2024/01/31 13:04:38;;;;;;;14.40;8.27;;;;;;;;;;5031315;28;20116;-84
2024/01/31 13:07:04;;;;;;;12.13;7.95;;;;;;;;;;5029322;28;20036;-84
2024/01/31 13:09:30;;;;;;;12.30;7.97;;;;;;;;;;5029978;28;20028;-84
2024/01/31 13:11:56;;;;;;;12.90;8.50;;;;;;;;;;5029838;28;20418;-85
2024/01/31 13:14:22;;;;;;;14.60;8.55;;;;;;;;;;5026714;28;20042;-84
2024/01/31 13:16:48;;;;;;;14.60;9.00;;;;;;;;;;5020513;28;20029;-85
2024/01/31 13:19:14;;;;;;;13.48;8.55;;;;;;;;;;5026542;28;20171;-84
2024/01/31 13:21:43;;;;;;;14.32;9.63;;;;;;;;;;5029605;28;20061;-84
2024/01/31 13:24:09;;;;;;;13.52;8.85;;;;;;;;;;5025180;28;20029;-85
2024/01/31 13:26:35;;;;;;;13.75;8.85;;;;;;;;;;5023755;28;20025;-85
2024/01/31 13:29:02;;;;;;;14.95;8.70;;;;;;;;;;5031155;28;20022;-84
2024/01/31 13:31:30;;;;;;;16.42;9.10;;;;;;;;;;5037076;28;20022;-84
2024/01/31 13:33:56;;;;;;;16.33;9.35;;;;;;;;;;5028383;28;20029;-85
2024/01/31 13:36:24;;;;;;;13.20;8.52;;;;;;;;;;5026432;28;20447;-84
2024/01/31 13:38:50;;;;;;;15.32;9.07;;;;;;;;;;5024282;28;20479;-84
2024/01/31 13:41:16;;;;;;;14.90;8.75;;;;;;;;;;5022001;28;20025;-83
2024/01/31 13:43:42;;;;;;;15.30;8.75;;;;;;;;;;5028122;28;20490;-83
2024/01/31 13:46:08;;;;;;;12.13;8.98;;;;;;;;;;5027445;28;20030;-84
2024/01/31 13:48:35;;;;;;;15.52;9.77;;;;;;;;;;5025979;28;20047;-83
2024/01/31 13:51:01;;;;;;;15.63;9.00;;;;;;;;;;5023556;28;20510;-83
2024/01/31 13:53:27;;;;;;;13.27;8.90;;;;;;;;;;5015996;28;20044;-82
2024/01/31 13:55:53;;;;;;;12.43;8.32;;;;;;;;;;5013551;28;20494;-83
2024/01/31 13:58:19;;;;;;;14.52;8.50;;;;;;;;;;5024807;28;20087;-83
2024/01/31 14:00:45;;;;;;;10.95;7.75;;;;;;;;;;5025306;28;20029;-83
2024/01/31 14:03:11;;;;;;;12.82;7.32;;;;;;;;;;5027433;28;20128;-83
2024/01/31 14:05:37;;;;;;;12.82;7.63;;;;;;;;;;5028362;28;20032;-83
2024/01/31 14:08:03;;;;;;;14.57;7.47;;;;;;;;;;5029393;28;20044;-83
2024/01/31 14:10:29;;;;;;;10.68;7.53;;;;;;;;;;5030376;28;20036;-83
2024/01/31 14:12:55;;;;;;;14.30;8.23;;;;;;;;;;5029406;28;20037;-85
2024/01/31 14:15:21;;;;;;;10.18;6.68;;;;;;;;;;5026589;28;20029;-83
2024/01/31 14:17:47;;;;;;;10.45;6.43;;;;;;;;;;5023474;28;20398;-82
2024/01/31 14:20:13;;;;;;;12.60;5.85;;;;;;;;;;5028093;28;20051;-82
2024/01/31 14:22:39;;;;;;;9.38;5.63;;;;;;;;;;5028420;28;20389;-82
2024/01/31 14:25:05;;;;;;;8.25;5.43;;;;;;;;;;5026924;28;20017;-83
2024/01/31 14:27:31;;;;;;;6.07;4.85;;;;;;;;;;5024188;28;20052;-83
2024/01/31 14:29:57;;;;;;;7.00;4.85;;;;;;;;;;5028364;28;20132;-82